Time;durP1;ratioP1;P1;durP2;ratioP2;P2;SDS_P1;SDS_P2;PMS_P1;PMS_P2;Temp;Humidity;BMP_temperature;BMP_pressure;BME280_temperature;BME280_humidity;BME280_pressure;Samples;Min_cycle;Max_cycle;Signal;HPM_P1;HPM_P2
2020/12/11 10:03:57;;;;;;;30.47;21.67;;;;;;;3.60;78.16;97356.25;5127652;27;20594;-80
2020/12/11 10:06:25;;;;;;;27.23;20.43;;;;;;;4.26;76.93;97376.75;5108719;27;38940;-80
2020/12/11 10:08:52;;;;;;;26.27;21.23;;;;;;;4.67;74.65;97382.91;5191540;22;42944;-78
2020/12/11 10:11:20;;;;;;;29.20;21.50;;;;;;;5.06;73.08;97378.72;5063522;28;41527;-79
2020/12/11 10:13:50;;;;;;;25.50;19.77;;;;;;;5.29;70.84;97374.63;5046821;28;42398;-80
2020/12/11 10:16:18;;;;;;;28.83;20.83;;;;;;;5.45;70.39;97350.81;5064831;28;40485;-81
2020/12/11 10:18:45;;;;;;;24.83;19.70;;;;;;;5.79;69.84;97373.91;5047971;28;42174;-79
2020/12/11 10:21:13;;;;;;;27.20;20.47;;;;;;;5.88;68.07;97377.69;5123302;22;43853;-79
2020/12/11 10:23:40;;;;;;;24.97;20.03;;;;;;;5.83;67.45;97362.22;5003839;28;42483;-79
2020/12/11 10:26:08;;;;;;;25.93;20.23;;;;;;;5.97;67.62;97362.19;5035438;28;39654;-81
2020/12/11 10:28:35;;;;;;;24.67;19.43;;;;;;;5.94;67.22;97314.25;5024086;28;41753;-80
2020/12/11 10:31:02;;;;;;;23.63;18.60;;;;;;;6.35;66.35;97350.81;5024877;28;42944;-80
2020/12/11 10:33:29;;;;;;;24.23;19.53;;;;;;;6.40;65.37;97340.84;5215213;22;43268;-79
2020/12/11 10:35:56;;;;;;;23.30;19.87;;;;;;;6.62;64.75;97364.69;5064692;28;40030;-78
2020/12/11 10:38:26;;;;;;;23.87;18.23;;;;;;;6.84;63.79;97380.63;5080478;28;42515;-78
2020/12/11 10:40:53;;;;;;;23.90;19.60;;;;;;;6.95;63.48;97350.06;5062705;28;41525;-80
2020/12/11 10:43:21;;;;;;;25.93;19.80;;;;;;;7.36;62.25;97381.28;5054816;28;42803;-79
2020/12/11 10:45:48;;;;;;;21.03;18.73;;;;;;;7.55;61.68;97374.56;5141270;22;40677;-79
2020/12/11 10:48:15;;;;;;;25.87;20.33;;;;;;;7.66;61.51;97372.94;5046758;28;42498;-80
2020/12/11 10:50:42;;;;;;;22.80;18.60;;;;;;;7.80;61.31;97359.53;5079288;28;42764;-78
2020/12/11 10:53:09;;;;;;;21.37;19.10;;;;;;;7.88;60.53;97375.66;5062686;28;42141;-80
2020/12/11 10:55:37;;;;;;;21.73;18.70;;;;;;;7.92;59.77;97364.72;5062277;28;39936;-78
2020/12/11 10:58:04;;;;;;;22.80;18.80;;;;;;;7.92;59.20;97374.44;5150976;22;41255;-79
2020/12/11 11:00:32;;;;;;;22.70;19.40;;;;;;;7.90;60.01;97360.56;5046355;28;44914;-78
2020/12/11 11:02:58;;;;;;;24.13;20.50;;;;;;;7.82;59.57;97374.28;5063742;28;42498;-79
2020/12/11 11:05:25;;;;;;;22.70;19.13;;;;;;;7.55;59.62;97365.81;5046119;28;41053;-80
2020/12/11 11:07:53;;;;;;;22.77;19.47;;;;;;;7.51;59.85;97359.94;5155524;22;41767;-79
2020/12/11 11:10:29;;;;;;;23.43;20.33;;;;;;;7.35;60.58;97327.78;5066487;28;43625;-79
2020/12/11 11:13:05;;;;;;;22.80;19.43;;;;;;;7.49;60.63;97339.94;5083313;28;42100;-80
2020/12/11 11:15:43;;;;;;;22.93;20.30;;;;;;;7.54;61.10;97341.25;5068673;28;40183;-80
2020/12/11 11:18:19;;;;;;;23.73;19.90;;;;;;;7.56;60.80;97306.91;5052924;28;41935;-79
2020/12/11 11:26:38;;;;;;;29.40;23.90;;;;;;;7.41;59.50;97295.75;5069251;28;38895;-82
2020/12/11 11:29:05;;;;;;;24.80;21.20;;;;;;;7.41;60.03;97310.72;5068944;28;42858;-79
2020/12/11 11:31:32;;;;;;;23.87;19.93;;;;;;;7.44;60.47;97300.75;5168530;22;42759;-80
2020/12/11 11:34:01;;;;;;;26.33;21.43;;;;;;;7.48;60.64;97291.69;5086082;28;42809;-78
2020/12/11 11:36:29;;;;;;;24.87;20.90;;;;;;;7.52;60.23;97298.41;5087460;28;41038;-79
2020/12/11 11:38:57;;;;;;;25.13;20.83;;;;;;;7.39;59.74;97259.94;5085179;28;42108;-78
2020/12/11 11:46:54;;;;;;;21.67;18.47;;;;;;;8.08;59.09;97264.25;5023256;28;40955;-78
2020/12/11 11:49:25;;;;;;;22.13;18.77;;;;;;;8.45;58.00;97270.13;5023461;28;42491;-79
2020/12/11 11:51:59;;;;;;;21.13;18.37;;;;;;;8.69;57.19;97266.50;5019875;28;43810;-79
2020/12/11 11:54:48;;;;;;;21.50;18.10;;;;;;;9.08;56.36;97267.72;5079064;22;42241;31
2020/12/11 11:57:15;;;;;;;21.83;19.23;;;;;;;10.12;55.36;97271.25;5130340;22;39779;-81
2020/12/11 11:59:42;;;;;;;19.40;17.30;;;;;;;11.14;52.79;97286.91;5124914;27;42210;-82
2020/12/11 12:02:10;;;;;;;21.57;18.90;;;;;;;11.60;51.00;97288.06;5123328;27;43397;-81
2020/12/11 12:04:37;;;;;;;19.07;16.83;;;;;;;11.73;50.62;97291.25;5104317;27;42274;-81
2020/12/11 12:07:04;;;;;;;19.57;17.50;;;;;;;12.00;49.10;97297.63;5189182;22;39915;-81
2020/12/11 12:09:31;;;;;;;22.37;19.30;;;;;;;12.14;48.34;97307.81;5066849;28;41683;-82
2020/12/11 12:12:00;;;;;;;19.97;17.97;;;;;;;11.98;48.07;97296.97;5082544;28;42751;-81
2020/12/11 12:14:28;;;;;;;20.57;18.43;;;;;;;11.82;48.50;97293.06;5083242;28;42180;-83
2020/12/11 12:16:58;;;;;;;19.70;17.70;;;;;;;14.08;44.80;97308.34;5068558;28;40549;-82
2020/12/11 12:19:28;;;;;;;20.90;18.80;;;;;;;15.81;41.92;97303.41;5185959;22;42377;-82
2020/12/11 12:30:34;;;;;;;20.67;18.47;;;;;;;12.76;44.34;97264.66;5282825;22;20533;-82
2020/12/11 12:35:49;;;;;;;20.10;18.00;;;;;;;11.63;46.69;97266.53;5104223;27;43815;-82
2020/12/11 12:38:22;;;;;;;21.00;18.73;;;;;;;11.38;47.66;97253.84;5115389;27;42736;-81
2020/12/11 12:43:31;;;;;;;18.97;16.97;;;;;;;10.96;48.76;97243.53;5183410;22;41693;-81
2020/12/11 12:45:59;;;;;;;19.77;17.00;;;;;;;11.80;47.91;97244.63;5078646;28;41033;-82
2020/12/11 12:48:26;;;;;;;19.30;17.30;;;;;;;12.25;46.17;97238.63;5090021;28;43070;-81
2020/12/11 12:50:54;;;;;;;19.90;17.90;;;;;;;12.40;44.83;97246.97;5110945;27;41938;-81
2020/12/11 12:53:21;;;;;;;17.97;16.07;;;;;;;12.17;46.35;97243.84;5198629;22;40270;-83
2020/12/11 12:56:32;;;;;;;18.57;16.57;;;;;;;11.98;46.20;97235.94;5104614;27;41337;-82
2020/12/11 12:58:41;;;;;;;18.13;16.30;;;;;;;12.00;46.68;97239.28;5121895;27;43025;-81
2020/12/11 13:01:15;;;;;;;17.63;15.70;;;;;;;12.92;45.47;97240.09;5105942;27;43040;-81
2020/12/11 13:04:06;;;;;;;18.17;16.37;;;;;;;13.25;44.65;97228.00;5114570;27;40018;-82
2020/12/11 13:06:33;;;;;;;18.23;16.33;;;;;;;12.68;45.15;97223.91;5181763;22;41670;-82
2020/12/11 13:09:00;;;;;;;19.70;17.67;;;;;;;11.68;46.09;97174.16;5065432;28;44164;-82
2020/12/11 13:11:27;;;;;;;18.17;16.20;;;;;;;11.00;48.03;97181.34;5081147;28;42265;-82
2020/12/11 13:13:54;;;;;;;18.00;16.10;;;;;;;10.57;50.00;97194.13;5065918;28;41532;-81
2020/12/11 13:19:25;;;;;;;20.53;17.67;;;;;;;9.41;52.29;97159.25;5052361;28;42948;-81
2020/12/11 13:22:07;;;;;;;19.83;16.97;;;;;;;9.13;53.13;97138.81;5052316;28;42899;-82
2020/12/11 13:27:23;;;;;;;18.90;16.57;;;;;;;8.76;53.80;97157.69;5062230;28;41949;-83
2020/12/11 13:29:51;;;;;;;21.73;17.10;;;;;;;8.55;54.73;97143.59;5176744;22;44026;-81
2020/12/11 13:32:19;;;;;;;21.13;17.73;;;;;;;8.44;55.10;97154.19;5102983;28;42121;-80
2020/12/11 13:34:49;;;;;;;21.13;17.80;;;;;;;8.27;55.56;97145.84;5119407;27;39874;-80
2020/12/11 13:37:16;;;;;;;19.33;16.37;;;;;;;8.18;55.85;97122.81;5087462;28;43066;-80
2020/12/11 13:40:11;;;;;;;20.17;16.60;;;;;;;8.38;55.76;97130.97;5112421;22;43242;31
2020/12/11 13:42:39;;;;;;;19.70;16.67;;;;;;;8.33;56.05;97120.78;5027795;28;42425;-80
2020/12/11 13:45:06;;;;;;;20.23;16.63;;;;;;;8.36;56.38;97119.69;5027742;28;41365;-80
2020/12/11 13:47:33;;;;;;;20.57;16.03;;;;;;;7.98;56.24;97077.94;5029584;28;42800;-80
2020/12/11 13:50:01;;;;;;;18.80;16.17;;;;;;;8.07;56.36;97114.94;5043686;28;44786;-81
2020/12/11 13:52:28;;;;;;;20.73;17.20;;;;;;;7.97;56.83;97119.28;5107493;22;41647;-82
2020/12/11 13:54:55;;;;;;;20.43;16.77;;;;;;;7.75;57.57;97130.69;5048743;28;40281;-80
2020/12/11 13:57:22;;;;;;;23.50;17.53;;;;;;;7.47;57.93;97105.66;5032918;28;43255;-80
2020/12/11 13:59:49;;;;;;;18.80;16.07;;;;;;;7.42;58.70;97125.38;5032335;28;44240;-80
2020/12/11 14:02:16;;;;;;;17.87;15.87;;;;;;;7.22;59.11;97105.88;5065554;28;42334;-79
2020/12/11 14:04:44;;;;;;;21.30;17.03;;;;;;;7.13;59.65;97114.47;5122628;22;40681;-81
2020/12/11 14:07:12;;;;;;;22.47;17.70;;;;;;;7.04;60.17;97107.31;5043936;28;42050;-80
2020/12/11 14:09:39;;;;;;;22.00;17.73;;;;;;;7.07;60.54;97109.66;5029500;28;43259;-80
2020/12/11 14:12:06;;;;;;;21.47;17.30;;;;;;;7.03;60.80;97110.88;5029604;28;42133;-79
2020/12/11 14:14:33;;;;;;;22.07;16.97;;;;;;;6.90;60.77;97118.03;5044248;28;39933;-79
2020/12/11 14:17:03;;;;;;;21.87;17.43;;;;;;;6.81;61.41;97123.00;5135889;22;42497;-80
2020/12/11 14:22:22;;;;;;;22.27;17.10;;;;;;;6.68;61.74;97119.63;5061903;28;42976;-79
2020/12/11 14:24:49;;;;;;;21.97;17.00;;;;;;;6.63;61.97;97116.50;5044658;28;40007;-79
2020/12/11 14:27:16;;;;;;;25.03;17.80;;;;;;;6.57;62.62;97114.31;5136361;22;42253;-80
2020/12/11 14:29:43;;;;;;;23.70;18.97;;;;;;;6.45;62.45;97094.19;5029997;28;45137;-80
2020/12/11 14:32:11;;;;;;;23.73;18.40;;;;;;;6.27;62.72;97085.03;5046527;28;43092;-81
2020/12/11 14:34:42;;;;;;;23.23;17.33;;;;;;;6.24;63.07;97093.16;5031384;28;40293;-80
2020/12/11 14:37:10;;;;;;;20.60;16.83;;;;;;;6.34;63.20;97112.53;5047420;28;41468;-80
2020/12/11 14:39:38;;;;;;;23.50;18.50;;;;;;;6.30;63.40;97108.47;5159629;22;42591;-81
2020/12/11 14:42:06;;;;;;;21.00;17.23;;;;;;;6.20;63.94;97110.91;5088129;28;42834;-81
2020/12/11 14:44:34;;;;;;;22.90;18.57;;;;;;;6.06;63.90;97092.69;5087797;28;41322;-79
2020/12/11 14:47:02;;;;;;;22.87;16.93;;;;;;;6.09;64.27;97109.06;5071526;28;42436;-82
2020/12/11 14:49:29;;;;;;;22.40;18.33;;;;;;;6.05;64.32;97115.53;5088236;28;43384;-80
2020/12/11 14:51:56;;;;;;;22.67;16.37;;;;;;;5.88;64.23;97097.50;5069494;22;42046;-80
2020/12/11 14:54:23;;;;;;;22.20;17.20;;;;;;;5.94;64.64;97115.44;5009159;28;42284;-82
2020/12/11 14:56:51;;;;;;;22.67;16.80;;;;;;;5.98;64.61;97106.38;5001980;28;41683;-82
2020/12/11 14:59:19;;;;;;;22.40;17.37;;;;;;;5.95;64.70;97103.13;4968855;28;43059;-80
2020/12/11 15:01:48;;;;;;;20.73;15.90;;;;;;;5.91;65.11;97094.66;5066071;22;43000;-81
2020/12/11 15:04:15;;;;;;;21.90;17.17;;;;;;;5.87;65.17;97087.06;5063634;28;41661;-82
2020/12/11 15:06:44;;;;;;;21.90;17.20;;;;;;;5.77;65.68;97082.47;5062230;28;42599;-80
2020/12/11 15:09:11;;;;;;;20.53;16.23;;;;;;;5.54;66.26;97048.31;5073097;28;44170;-80
2020/12/11 15:11:38;;;;;;;22.73;17.77;;;;;;;5.54;66.52;97079.81;5088086;28;42290;-81
2020/12/11 15:14:07;;;;;;;20.27;16.40;;;;;;;5.40;66.88;97089.50;5110309;22;40722;-83
2020/12/11 15:16:34;;;;;;;23.50;17.37;;;;;;;4.98;66.77;97024.25;4950640;28;42871;-82
2020/12/11 15:19:02;;;;;;;22.27;17.63;;;;;;;5.09;67.93;97058.44;4950059;28;43534;-80
2020/12/11 15:21:29;;;;;;;23.93;18.17;;;;;;;4.93;68.24;97052.59;4949106;28;42839;-80
2020/12/11 15:23:56;;;;;;;24.40;17.83;;;;;;;4.78;68.31;97051.84;4965835;28;40581;-81
2020/12/11 15:26:23;;;;;;;23.83;16.97;;;;;;;4.79;68.07;97056.16;5032083;22;42601;-81
2020/12/11 15:28:50;;;;;;;21.20;16.33;;;;;;;4.93;68.50;97074.41;4959755;28;44365;-81
2020/12/11 15:31:20;;;;;;;21.07;16.87;;;;;;;4.80;68.36;97047.34;4981233;28;40819;-78
2020/12/11 15:33:47;;;;;;;22.97;17.37;;;;;;;4.91;69.01;97055.31;5042509;28;40326;-82
2020/12/11 15:38:52;;;;;;;22.40;16.70;;;;;;;4.91;68.53;97062.34;4944174;28;42625;-80
2020/12/11 15:41:19;;;;;;;23.50;17.80;;;;;;;5.01;68.64;97106.19;4938961;28;43876;-80
2020/12/11 15:43:47;;;;;;;22.87;16.90;;;;;;;4.94;68.78;97076.09;4946822;28;40772;-81
2020/12/11 15:46:14;;;;;;;22.50;16.57;;;;;;;4.97;68.66;97080.25;4948145;28;41558;-79
2020/12/11 15:48:43;;;;;;;24.80;15.73;;;;;;;5.07;68.48;97097.03;5047189;23;43607;-82
2020/12/11 15:51:10;;;;;;;24.93;18.73;;;;;;;4.92;69.14;97067.47;4964124;28;42728;-80
2020/12/11 15:53:38;;;;;;;24.30;17.47;;;;;;;5.03;68.81;97074.63;4939895;28;41829;-81
2020/12/11 15:56:05;;;;;;;23.20;17.53;;;;;;;5.00;68.79;97064.31;4966481;28;41911;-80
2020/12/11 15:58:32;;;;;;;22.77;17.20;;;;;;;5.06;68.68;97069.16;4966208;28;43176;-80
2020/12/11 16:00:59;;;;;;;22.00;16.30;;;;;;;5.04;68.62;97063.19;5055252;23;41757;-81
2020/12/11 16:03:27;;;;;;;23.57;17.63;;;;;;;5.05;68.76;97076.19;4967783;28;41085;-81
2020/12/11 16:05:55;;;;;;;22.00;16.83;;;;;;;5.01;69.19;97063.38;4963680;28;42187;-80
2020/12/11 16:08:22;;;;;;;20.83;15.83;;;;;;;5.07;68.76;97075.25;4983423;28;42631;-82
2020/12/11 16:10:50;;;;;;;20.23;15.07;;;;;;;4.97;68.98;97059.28;4983804;28;42625;-82
2020/12/11 16:13:18;;;;;;;20.27;16.00;;;;;;;4.95;69.08;97055.91;5034485;22;40561;-80
2020/12/11 16:15:45;;;;;;;19.07;15.30;;;;;;;5.03;69.16;97064.13;4952701;28;41800;-83
2020/12/11 16:18:14;;;;;;;21.77;16.20;;;;;;;4.85;69.44;97039.13;4961434;28;44070;-82
2020/12/11 16:20:41;;;;;;;21.17;15.73;;;;;;;4.96;69.49;97060.22;4965249;28;41629;-81
2020/12/11 16:23:09;;;;;;;22.20;15.63;;;;;;;4.61;69.17;97000.56;5088520;22;39076;-81
2020/12/11 16:25:36;;;;;;;22.70;16.70;;;;;;;4.93;69.33;97047.34;4945659;28;40704;-80
2020/12/11 16:28:04;;;;;;;21.10;16.67;;;;;;;5.02;69.46;97062.44;4946199;28;43454;-81
2020/12/11 16:30:37;;;;;;;22.13;16.87;;;;;;;5.00;69.32;97072.19;4928662;28;42927;-80
2020/12/11 16:33:07;;;;;;;23.80;16.87;;;;;;;4.96;69.87;97062.84;4966516;28;40921;-83
2020/12/11 16:35:34;;;;;;;19.77;15.17;;;;;;;4.97;69.38;97054.03;5037877;23;41614;-82
2020/12/11 16:38:02;;;;;;;20.53;15.70;;;;;;;4.97;69.30;97054.88;4961626;28;42647;-80
2020/12/11 16:40:32;;;;;;;20.87;15.40;;;;;;;4.98;69.59;97055.72;4972055;28;40834;-80
2020/12/11 16:43:12;;;;;;;19.90;15.60;;;;;;;4.98;69.55;97053.94;4986664;28;41005;-81
2020/12/11 16:45:40;;;;;;;22.00;16.07;;;;;;;4.94;69.42;97051.66;4963356;28;40805;-81
2020/12/11 16:48:10;;;;;;;21.80;16.87;;;;;;;4.94;69.88;97051.66;5081872;22;43784;-81
2020/12/11 16:50:37;;;;;;;22.17;16.70;;;;;;;4.93;69.88;97047.34;4969069;28;42965;-79
2020/12/11 16:53:04;;;;;;;21.63;16.27;;;;;;;4.87;69.92;97043.34;4973555;28;40085;-80
2020/12/11 16:55:33;;;;;;;21.87;16.63;;;;;;;4.87;70.09;97042.50;5013647;28;41833;-81
2020/12/11 16:58:02;;;;;;;22.50;16.80;;;;;;;4.74;70.34;97026.78;5083020;22;43487;-81
2020/12/11 17:00:31;;;;;;;23.50;16.80;;;;;;;4.68;70.81;97028.03;5060992;28;40512;-79
2020/12/11 17:03:19;;;;;;;20.60;15.57;;;;;;;4.77;71.41;97036.22;5041682;28;40623;-80
2020/12/11 17:06:02;;;;;;;22.57;17.23;;;;;;;4.73;71.47;97034.72;5065057;28;41893;-79
2020/12/11 17:08:32;;;;;;;19.73;14.57;;;;;;;4.73;71.45;97040.81;5060202;28;45193;-81
2020/12/11 17:11:00;;;;;;;20.93;16.27;;;;;;;4.67;71.55;97021.13;5067357;23;43555;-80
2020/12/11 17:13:27;;;;;;;21.80;17.00;;;;;;;4.72;71.97;97033.91;4987620;28;40548;-80
2020/12/11 17:15:55;;;;;;;22.27;16.63;;;;;;;4.59;72.64;97017.31;5012967;28;41730;-80
2020/12/11 17:18:22;;;;;;;22.43;15.83;;;;;;;4.65;71.78;97043.97;4963778;28;43174;-81
2020/12/11 17:20:49;;;;;;;19.27;14.77;;;;;;;4.72;71.84;97043.53;4967413;28;43949;-80
2020/12/11 17:23:16;;;;;;;22.23;16.93;;;;;;;4.68;72.20;97045.56;5067513;23;41379;-79
2020/12/11 17:25:43;;;;;;;21.70;16.40;;;;;;;4.66;72.09;97044.81;4971501;28;43204;-80
2020/12/11 17:28:19;;;;;;;19.93;15.70;;;;;;;4.62;72.13;97041.56;4971661;28;45204;-80
2020/12/11 17:30:49;;;;;;;22.77;17.37;;;;;;;4.64;72.30;97049.31;4972266;28;42381;-80
2020/12/11 17:33:19;;;;;;;21.30;16.17;;;;;;;4.61;72.63;97037.25;5058044;22;40049;-79
2020/12/11 17:35:47;;;;;;;34.30;23.37;;;;;;;4.42;73.59;97015.84;4988104;28;41348;-79
2020/12/11 17:38:14;;;;;;;24.23;18.13;;;;;;;4.42;74.25;97028.97;4979521;28;44451;-80
2020/12/11 17:40:41;;;;;;;22.97;18.67;;;;;;;4.49;73.95;97043.31;4995773;28;42616;-79
2020/12/11 17:43:08;;;;;;;23.67;18.63;;;;;;;4.44;74.68;97028.84;4994682;28;40033;-79
2020/12/11 17:45:36;;;;;;;23.00;17.67;;;;;;;4.27;74.44;97014.25;5148953;22;43193;-80
2020/12/11 17:48:03;;;;;;;25.23;18.17;;;;;;;4.34;74.67;97034.69;5068888;28;43150;-80
2020/12/11 17:50:31;;;;;;;23.63;17.97;;;;;;;4.35;75.20;97030.28;4987289;28;42122;-80
2020/12/11 17:52:59;;;;;;;21.03;15.90;;;;;;;4.33;74.63;97033.00;4987655;28;40903;-80
2020/12/11 17:55:26;;;;;;;23.23;16.97;;;;;;;4.33;74.82;97029.56;5029889;28;41465;-81
2020/12/11 17:57:53;;;;;;;24.80;18.33;;;;;;;4.31;75.14;97028.84;5079508;22;44054;-79
2020/12/11 18:00:20;;;;;;;22.77;17.30;;;;;;;4.18;75.51;97017.50;5093323;22;42728;-81
2020/12/11 18:02:49;;;;;;;26.40;19.27;;;;;;;4.22;76.04;97029.44;4984452;28;39858;-76
2020/12/11 18:05:16;;;;;;;22.97;17.30;;;;;;;4.14;75.82;97021.25;4966548;28;42828;-78
2020/12/11 18:07:47;;;;;;;22.80;17.10;;;;;;;4.15;75.79;97034.25;4985351;28;42919;-78
2020/12/11 18:10:15;;;;;;;24.70;16.70;;;;;;;3.87;75.95;96985.44;5054644;23;42649;-76
2020/12/11 18:12:42;;;;;;;22.73;16.97;;;;;;;4.13;75.91;97030.88;4973860;28;41217;-78
2020/12/11 18:15:09;;;;;;;25.37;18.13;;;;;;;4.10;76.60;97011.91;4957426;28;42383;-76
2020/12/11 18:17:37;;;;;;;24.30;17.63;;;;;;;3.92;76.46;97004.34;4978431;28;42756;-79
2020/12/11 18:20:08;;;;;;;24.53;18.77;;;;;;;4.05;76.60;97032.34;5063018;22;40952;-79
2020/12/11 18:22:38;;;;;;;27.20;18.70;;;;;;;4.00;76.89;97024.78;5047051;28;40494;-78
2020/12/11 18:25:06;;;;;;;24.90;18.27;;;;;;;3.92;76.68;97012.19;4981609;28;42267;-76
2020/12/11 18:27:33;;;;;;;26.07;18.53;;;;;;;4.00;77.15;97018.69;4968120;28;42547;-78
2020/12/11 18:30:02;;;;;;;24.20;18.67;;;;;;;3.99;77.70;97007.38;4950939;28;43821;-77
2020/12/11 18:32:30;;;;;;;25.10;18.33;;;;;;;3.96;77.17;97013.66;5048241;22;40017;-77
2020/12/11 18:34:57;;;;;;;27.43;18.80;;;;;;;4.01;76.98;97025.59;4950357;28;41997;-79
2020/12/11 18:37:25;;;;;;;25.40;19.20;;;;;;;3.96;77.33;97018.03;4967994;28;42469;-77
2020/12/11 18:39:53;;;;;;;25.03;18.13;;;;;;;3.67;78.08;96991.16;4950962;28;42962;-77
2020/12/11 18:42:20;;;;;;;25.87;19.13;;;;;;;3.76;78.11;96990.56;4950086;28;40369;-78
2020/12/11 18:44:47;;;;;;;24.90;17.87;;;;;;;3.89;78.04;97015.00;5047739;22;42148;-78
